createdAt,value
2022-09-26T14:13:38.117Z,99411.47
2022-09-26T14:16:29.390Z,99421.28
2022-09-26T14:19:32.709Z,99416.50
2022-09-26T14:22:37.537Z,99410.94
2022-09-26T14:25:50.426Z,99418.41
2022-09-26T14:28:40.353Z,99418.31
2022-09-26T14:31:28.300Z,99424.13
2022-09-26T14:34:26.295Z,99426.19
2022-09-26T14:37:41.611Z,99431.66
2022-09-26T14:40:35.193Z,99429.69
2022-09-26T14:43:28.231Z,99436.88
2022-09-26T14:46:25.286Z,99434.19
2022-09-26T14:49:32.413Z,99443.97
2022-09-26T14:52:28.286Z,99443.34
2022-09-26T14:55:17.162Z,99455.09
2022-09-26T14:58:48.099Z,99440.06
2022-09-26T15:01:39.237Z,99445.75
2022-09-26T15:04:33.133Z,99444.16
2022-09-26T15:07:24.605Z,99438.00
2022-09-26T15:10:14.041Z,99445.19
2022-09-26T15:13:28.811Z,99447.16
2022-09-26T15:16:37.706Z,99457.69
2022-09-26T15:19:36.878Z,99460.63
2022-09-26T15:22:27.773Z,99460.63
2022-09-26T15:25:31.251Z,99466.44
2022-09-26T15:28:20.001Z,99475.03
2022-09-26T15:31:38.516Z,99473.41
2022-09-26T15:34:42.883Z,99479.41
2022-09-26T15:37:36.943Z,99483.94
2022-09-26T15:40:32.377Z,99487.00
2022-09-26T15:43:20.911Z,99486.69
2022-09-26T15:46:27.372Z,99483.44
2022-09-26T15:49:23.122Z,99470.81
2022-09-26T15:52:11.723Z,99493.16
2022-09-26T15:55:00.360Z,99495.91
2022-09-26T15:57:53.165Z,99488.31
2022-09-26T16:00:51.259Z,99487.34
2022-09-26T16:04:01.946Z,99486.69
2022-09-26T16:06:57.290Z,99483.28
2022-09-26T16:09:48.834Z,99489.25
2022-09-26T16:12:42.648Z,99491.03
2022-09-26T16:15:31.898Z,99499.94
2022-09-26T16:18:52.992Z,99492.16
2022-09-26T16:21:41.847Z,99497.50
2022-09-26T16:24:34.936Z,99500.09
2022-09-26T16:27:34.279Z,99501.56
2022-09-26T16:30:28.801Z,99504.19
2022-09-26T16:36:25.125Z,99495.09
2022-09-26T16:39:30.483Z,99495.25
2022-09-26T16:42:21.690Z,99502.53
2022-09-26T16:45:15.154Z,99504.13
2022-09-26T16:48:04.309Z,99495.69
2022-09-26T16:51:15.961Z,99507.34
2022-09-26T16:54:21.920Z,99504.75
2022-09-26T16:57:24.470Z,99501.00
2022-09-26T17:01:01.963Z,99495.69
2022-09-26T17:04:24.855Z,99509.91
2022-09-26T17:10:26.877Z,99506.19
2022-09-26T17:13:22.266Z,99510.88
2022-09-26T17:16:11.237Z,99513.97
2022-09-26T17:19:00.787Z,99513.81
2022-09-26T17:21:50.551Z,99519.78
2022-09-26T17:24:39.098Z,99520.59
2022-09-26T17:27:34.557Z,99516.25
2022-09-26T17:30:23.236Z,99523.84
2022-09-26T17:33:12.952Z,99518.66
2022-09-26T17:36:01.507Z,99525.44
2022-09-26T17:38:53.397Z,99529.69
2022-09-26T17:41:42.701Z,99534.03
2022-09-26T17:44:34.259Z,99529.34
2022-09-26T17:47:24.637Z,99530.63
2022-09-26T17:50:30.675Z,99530.78
2022-09-26T17:53:21.605Z,99537.91
2022-09-26T17:56:11.355Z,99541.31
2022-09-26T17:59:00.530Z,99547.47
2022-09-26T18:01:53.314Z,99548.16
2022-09-26T18:04:42.653Z,99543.66
2022-09-26T18:07:38.977Z,99540.41
2022-09-26T18:10:34.671Z,99547.66
2022-09-26T18:13:28.930Z,99549.72
2022-09-26T18:16:18.980Z,99547.75
2022-09-26T18:19:09.581Z,99548.72
2022-09-26T18:21:59.578Z,99547.25
2022-09-26T18:24:51.773Z,99553.84
2022-09-26T18:27:41.213Z,99550.09
2022-09-26T18:30:29.768Z,99556.41
2022-09-26T18:33:19.886Z,99552.03
2022-09-26T18:36:11.724Z,99554.78
2022-09-26T18:39:02.257Z,99557.16
2022-09-26T18:42:13.829Z,99547.25
2022-09-26T18:45:11.014Z,99554.19
2022-09-26T18:48:05.860Z,99545.00
2022-09-26T18:51:01.689Z,99539.22
2022-09-26T18:53:59.604Z,99552.59
2022-09-26T18:57:07.711Z,99555.63
2022-09-26T18:59:56.901Z,99556.56
2022-09-26T19:02:45.705Z,99547.94
2022-09-26T19:05:33.849Z,99552.56
2022-09-26T19:08:35.604Z,99560.63
2022-09-26T19:11:27.090Z,99557.88
2022-09-26T19:14:25.361Z,99555.41
2022-09-26T19:17:13.848Z,99552.47
2022-09-26T19:20:02.347Z,99557.41
2022-09-26T19:22:55.869Z,99560.16
2022-09-26T19:25:44.118Z,99570.81
2022-09-26T19:28:36.451Z,99554.59
2022-09-26T19:31:25.231Z,99563.31
2022-09-26T19:34:18.680Z,99558.13
2022-09-26T19:37:10.181Z,99565.06
2022-09-26T19:39:58.964Z,99565.06
2022-09-26T19:42:47.211Z,99568.31
2022-09-26T19:45:35.804Z,99574.00
2022-09-26T19:48:25.167Z,99568.66
2022-09-26T19:51:15.419Z,99572.56
2022-09-26T19:54:06.345Z,99575.66
2022-09-26T19:56:54.683Z,99580.41
2022-09-26T19:59:42.902Z,99568.13
2022-09-26T20:02:32.756Z,99572.72
2022-09-26T20:05:26.128Z,99574.53
2022-09-26T20:08:18.451Z,99568.72
2022-09-26T20:11:06.918Z,99564.81
2022-09-26T20:14:30.440Z,99570.78
2022-09-26T20:17:26.060Z,99564.47
2022-09-26T20:20:24.453Z,99571.13
2022-09-26T20:23:22.115Z,99576.31
2022-09-26T20:26:10.052Z,99577.78
2022-09-26T20:28:58.204Z,99576.22
2022-09-26T20:31:47.512Z,99581.88
2022-09-26T20:34:35.691Z,99586.22
2022-09-26T20:37:23.871Z,99588.97
2022-09-26T20:40:25.141Z,99586.38
2022-09-26T20:43:18.552Z,99598.00
2022-09-26T20:46:09.014Z,99599.41
2022-09-26T20:48:57.757Z,99602.09
2022-09-26T20:51:46.841Z,99598.78
2022-09-26T20:54:34.886Z,99598.56
2022-09-26T20:57:24.166Z,99598.84
2022-09-26T21:00:17.910Z,99597.69
2022-09-26T21:03:07.380Z,99606.56
2022-09-26T21:05:55.275Z,99607.66
2022-09-26T21:08:44.282Z,99600.06
2022-09-26T21:11:32.304Z,99600.88
2022-09-26T21:14:20.299Z,99609.56
2022-09-26T21:17:23.843Z,99607.97
2022-09-26T21:20:24.018Z,99606.16
2022-09-26T21:23:47.809Z,99612.47
2022-09-26T21:26:36.344Z,99606.13
2022-09-26T21:29:24.554Z,99620.56
2022-09-26T21:32:18.030Z,99612.44
2022-09-26T21:35:06.445Z,99614.06
2022-09-26T21:37:56.454Z,99620.06
2022-09-26T21:40:47.435Z,99616.00
2022-09-26T21:43:43.076Z,99619.03
2022-09-26T21:46:31.033Z,99621.75
2022-09-26T21:49:19.133Z,99622.03
2022-09-26T21:52:20.147Z,99623.28
2022-09-26T21:55:12.270Z,99625.50
2022-09-26T21:58:05.813Z,99625.91
2022-09-26T22:00:54.146Z,99624.72
2022-09-26T22:03:42.354Z,99632.78
2022-09-26T22:06:30.527Z,99630.50
2022-09-26T22:09:18.568Z,99639.84
2022-09-26T22:12:07.000Z,99632.91
2022-09-26T22:14:54.807Z,99636.03
2022-09-26T22:17:43.017Z,99638.44
2022-09-26T22:20:31.386Z,99636.97
2022-09-26T22:23:19.255Z,99630.19
2022-09-26T22:26:07.897Z,99640.66
2022-09-26T22:28:56.303Z,99636.31
2022-09-26T22:31:44.459Z,99638.75
2022-09-26T22:34:32.810Z,99644.72
2022-09-26T22:37:20.977Z,99645.38
2022-09-26T22:40:09.074Z,99640.38
2022-09-26T22:42:58.706Z,99636.31
2022-09-26T22:45:47.007Z,99639.03
2022-09-26T22:48:46.481Z,99640.50
2022-09-26T22:51:34.923Z,99636.31
2022-09-26T22:54:22.686Z,99638.34
2022-09-26T22:57:11.935Z,99636.59
2022-09-26T23:00:01.943Z,99639.53
2022-09-26T23:02:52.760Z,99646.03
2022-09-26T23:05:41.243Z,99645.09
2022-09-26T23:08:29.437Z,99639.28
2022-09-26T23:11:18.588Z,99639.28
2022-09-26T23:14:07.103Z,99639.44
2022-09-26T23:16:55.304Z,99630.03
2022-09-26T23:19:44.036Z,99625.69
2022-09-26T23:22:33.177Z,99621.19
2022-09-26T23:25:20.950Z,99619.28
2022-09-26T23:28:09.289Z,99617.38
2022-09-26T23:31:08.116Z,99624.16
2022-09-26T23:33:57.562Z,99617.53
2022-09-26T23:36:45.999Z,99619.28
2022-09-26T23:39:34.034Z,99609.91
2022-09-26T23:42:22.531Z,99612.94
2022-09-26T23:45:10.924Z,99609.75
2022-09-26T23:47:59.437Z,99623.88
2022-09-26T23:50:47.522Z,99621.72
2022-09-26T23:53:35.976Z,99622.31
2022-09-26T23:56:24.474Z,99622.31
2022-09-26T23:59:12.521Z,99619.50
